createdAt,value
2018-10-17T00:00:00.873Z,14.6
2018-10-17T00:05:01.180Z,14.2
2018-10-17T00:15:00.841Z,14.7
2018-10-17T00:20:00.997Z,15.2
2018-10-17T00:25:01.580Z,15.6
2018-10-17T00:30:00.848Z,16.6
2018-10-17T00:40:00.857Z,16.2
2018-10-17T00:45:01.226Z,16.3
2018-10-17T00:50:00.854Z,15.8
2018-10-17T00:55:01.130Z,14.7
2018-10-17T01:00:00.889Z,15.0
2018-10-17T01:05:01.015Z,14.5
2018-10-17T01:10:00.866Z,14.2
2018-10-17T01:15:00.916Z,14.6
2018-10-17T01:20:00.895Z,15.0
2018-10-17T01:25:01.118Z,15.4
2018-10-17T01:30:00.906Z,16.7
2018-10-17T01:35:01.108Z,17.3
2018-10-17T01:40:00.928Z,16.8
2018-10-17T01:45:01.656Z,16.4
2018-10-17T01:50:00.874Z,16.9
2018-10-17T01:55:01.015Z,16.2
2018-10-17T02:00:01.184Z,16.0
2018-10-17T02:05:01.070Z,16.7
2018-10-17T02:10:00.876Z,17.2
2018-10-17T02:15:00.879Z,16.2
2018-10-17T02:20:00.944Z,15.6
2018-10-17T02:25:01.044Z,15.0
2018-10-17T02:30:06.540Z,14.6
2018-10-17T02:35:01.117Z,14.3
2018-10-17T02:40:00.890Z,14.4
2018-10-17T02:45:00.887Z,15.4
2018-10-17T02:50:01.361Z,17.2
2018-10-17T02:55:01.273Z,20.0
2018-10-17T03:00:00.895Z,21.3
2018-10-17T03:05:01.088Z,22.5
2018-10-17T03:10:00.934Z,22.8
2018-10-17T03:15:00.935Z,21.6
2018-10-17T03:20:01.403Z,19.4
2018-10-17T03:25:01.186Z,19.8
2018-10-17T03:30:00.947Z,19.7
2018-10-17T03:35:01.255Z,19.9
2018-10-17T03:40:00.979Z,20.2
2018-10-17T03:45:00.962Z,20.7
2018-10-17T03:50:01.502Z,20.5
2018-10-17T03:55:01.224Z,21.2
2018-10-17T04:00:01.029Z,20.7
2018-10-17T04:05:01.208Z,21.0
2018-10-17T04:10:00.947Z,22.5
2018-10-17T04:15:01.561Z,24.4
2018-10-17T04:20:00.957Z,25.1
2018-10-17T04:25:01.228Z,26.2
2018-10-17T04:30:00.967Z,26.2
2018-10-17T04:35:01.245Z,24.6
2018-10-17T04:40:00.981Z,22.2
2018-10-17T04:45:00.988Z,20.2
2018-10-17T04:50:00.956Z,18.8
2018-10-17T04:55:01.180Z,19.1
2018-10-17T05:00:01.027Z,18.8
2018-10-17T05:10:00.935Z,19.0
2018-10-17T05:15:01.071Z,18.6
2018-10-17T05:20:00.935Z,17.9
2018-10-17T05:25:01.909Z,18.4
2018-10-17T05:30:01.005Z,19.4
2018-10-17T05:35:01.249Z,22.2
2018-10-17T05:40:01.262Z,25.4
2018-10-17T05:45:00.948Z,28.1
2018-10-17T05:50:00.949Z,28.2
2018-10-17T05:55:01.401Z,27.9
2018-10-17T06:00:01.158Z,27.1
2018-10-17T06:05:01.188Z,25.5
2018-10-17T06:10:00.968Z,23.9
2018-10-17T06:15:00.972Z,25.7
2018-10-17T06:20:00.966Z,27.9
2018-10-17T06:25:01.296Z,28.6
2018-10-17T06:30:05.977Z,30.4
2018-10-17T06:35:01.197Z,32.3
2018-10-17T06:40:00.978Z,32.6
2018-10-17T06:45:03.324Z,32.3
2018-10-17T06:50:00.983Z,32.4
2018-10-17T06:55:01.133Z,31.8
2018-10-17T07:00:01.172Z,31.1
2018-10-17T07:05:01.209Z,30.1
2018-10-17T07:10:01.053Z,29.7
2018-10-17T07:15:01.054Z,29.3
2018-10-17T07:25:01.112Z,29.9
2018-10-17T07:30:00.992Z,30.6
2018-10-17T07:35:00.996Z,31.4
2018-10-17T07:40:06.003Z,31.4
2018-10-17T07:45:01.007Z,31.4
2018-10-17T07:50:01.004Z,31.1
2018-10-17T07:55:01.004Z,31.2
2018-10-17T08:00:01.311Z,30.6
2018-10-17T08:05:01.351Z,30.8
2018-10-17T08:10:01.225Z,31.3
2018-10-17T08:15:01.008Z,31.5
2018-10-17T08:20:01.011Z,31.7
2018-10-17T08:25:01.013Z,31.8
2018-10-17T08:30:01.401Z,31.8
2018-10-17T08:35:01.022Z,31.5
2018-10-17T08:40:01.089Z,31.8
2018-10-17T08:45:01.220Z,32.0
2018-10-17T08:55:01.078Z,31.7
2018-10-17T09:00:01.028Z,32.0
2018-10-17T09:05:01.061Z,31.8
2018-10-17T09:10:01.563Z,31.6
2018-10-17T09:15:01.074Z,31.8
2018-10-17T09:20:02.372Z,31.3
2018-10-17T09:25:01.231Z,30.5
2018-10-17T09:30:01.607Z,29.9
2018-10-17T09:35:01.338Z,29.5
2018-10-17T09:40:01.440Z,29.3
2018-10-17T09:45:01.096Z,29.3
2018-10-17T09:50:01.080Z,29.7
2018-10-17T10:00:01.374Z,30.3
2018-10-17T10:05:01.381Z,30.5
2018-10-17T10:10:01.227Z,30.4
2018-10-17T10:15:01.094Z,30.1
2018-10-17T10:20:01.269Z,29.3
2018-10-17T10:25:01.470Z,29.1
2018-10-17T10:30:01.212Z,28.5
2018-10-17T10:35:01.354Z,28.0
2018-10-17T10:40:02.865Z,27.4
2018-10-17T10:45:01.624Z,27.0
2018-10-17T10:50:01.349Z,26.2
2018-10-17T10:55:01.329Z,25.5
2018-10-17T11:00:01.467Z,24.8
2018-10-17T11:05:01.777Z,24.6
2018-10-17T11:10:01.125Z,24.4
2018-10-17T11:15:02.161Z,24.2
2018-10-17T11:20:01.081Z,24.7
2018-10-17T11:30:01.835Z,25.1
2018-10-17T11:35:01.323Z,25.0
2018-10-17T11:40:01.343Z,24.8
2018-10-17T11:45:01.524Z,23.8
2018-10-17T11:50:01.152Z,23.3
2018-10-17T11:55:01.100Z,23.2
2018-10-17T12:00:01.093Z,23.5
2018-10-17T12:05:02.638Z,23.9
2018-10-17T12:10:01.351Z,24.0
2018-10-17T12:15:01.426Z,23.7
2018-10-17T12:20:01.168Z,23.2
2018-10-17T12:25:01.141Z,23.0
2018-10-17T12:30:01.398Z,22.7
2018-10-17T12:35:01.356Z,22.6
2018-10-17T12:40:01.579Z,22.8
2018-10-17T12:45:01.312Z,23.4
2018-10-17T12:50:01.248Z,23.0
2018-10-17T12:55:01.387Z,23.1
2018-10-17T13:00:01.205Z,23.0
2018-10-17T13:05:01.352Z,23.4
2018-10-17T13:15:01.556Z,23.0
2018-10-17T13:20:01.176Z,23.4
2018-10-17T13:25:01.466Z,23.9
2018-10-17T13:30:01.125Z,23.9
2018-10-17T13:35:01.419Z,24.1
2018-10-17T13:40:01.272Z,24.8
2018-10-17T13:45:01.484Z,25.0
2018-10-17T13:50:01.138Z,25.3
2018-10-17T13:55:01.284Z,26.0
2018-10-17T14:00:01.146Z,26.6
2018-10-17T14:05:01.265Z,27.1
2018-10-17T14:15:01.479Z,27.4
2018-10-17T14:20:01.145Z,27.4
2018-10-17T14:25:01.148Z,27.2
2018-10-17T14:30:01.845Z,27.0
2018-10-17T14:35:01.153Z,27.0
2018-10-17T14:45:01.493Z,27.2
2018-10-17T14:50:01.217Z,27.4
2018-10-17T14:55:01.229Z,27.4
2018-10-17T15:00:01.159Z,27.2
2018-10-17T15:05:01.448Z,27.3
2018-10-17T15:10:01.592Z,27.6
2018-10-17T15:15:01.390Z,27.9
2018-10-17T15:20:01.178Z,28.1
2018-10-17T15:25:01.170Z,28.6
2018-10-17T15:30:01.461Z,28.8
2018-10-17T15:35:01.192Z,28.9
2018-10-17T15:40:01.174Z,28.8
2018-10-17T15:45:01.543Z,29.2
2018-10-17T15:50:01.189Z,29.8
2018-10-17T15:55:01.224Z,30.0
2018-10-17T16:00:01.439Z,30.3
2018-10-17T16:05:01.220Z,30.4
2018-10-17T16:10:01.219Z,30.4
2018-10-17T16:15:01.219Z,30.1
2018-10-17T16:20:01.517Z,30.6
2018-10-17T16:25:01.223Z,30.4
2018-10-17T16:30:01.604Z,31.0
2018-10-17T16:35:01.731Z,31.3
2018-10-17T16:40:01.243Z,32.1
2018-10-17T16:45:01.313Z,32.3
2018-10-17T16:50:01.617Z,33.0
2018-10-17T16:55:01.562Z,33.1
2018-10-17T17:00:01.478Z,33.4
2018-10-17T17:05:01.216Z,33.6
2018-10-17T17:10:01.210Z,34.0
2018-10-17T17:15:01.450Z,34.1
2018-10-17T17:20:01.284Z,34.0
2018-10-17T17:25:01.216Z,34.4
2018-10-17T17:30:01.490Z,34.6
2018-10-17T17:35:01.223Z,34.4
2018-10-17T17:40:01.234Z,34.9
2018-10-17T17:45:01.233Z,35.7
2018-10-17T17:50:01.232Z,35.8
2018-10-17T17:55:01.232Z,36.0
2018-10-17T18:00:01.247Z,36.4
2018-10-17T18:05:01.238Z,36.2
2018-10-17T18:10:01.843Z,36.4
2018-10-17T18:15:01.280Z,36.5
2018-10-17T18:25:01.240Z,36.5
2018-10-17T18:30:01.497Z,36.6
2018-10-17T18:35:01.272Z,36.4
2018-10-17T18:45:01.290Z,36.4
2018-10-17T18:50:01.306Z,36.2
2018-10-17T18:55:01.282Z,36.2
2018-10-17T19:00:01.341Z,36.3
2018-10-17T19:05:01.388Z,36.2
2018-10-17T19:10:01.602Z,36.0
2018-10-17T19:15:01.926Z,36.0
2018-10-17T19:20:01.298Z,35.7
2018-10-17T19:25:01.377Z,35.7
2018-10-17T19:30:01.799Z,35.5
2018-10-17T19:35:01.510Z,35.3
2018-10-17T19:40:01.341Z,35.1
2018-10-17T19:45:01.531Z,35.3
2018-10-17T19:50:01.617Z,35.3
2018-10-17T19:55:01.286Z,35.2
2018-10-17T20:00:01.284Z,35.0
2018-10-17T20:05:01.282Z,34.9
2018-10-17T20:10:01.608Z,34.2
2018-10-17T20:15:01.891Z,33.6
2018-10-17T20:20:01.296Z,33.1
2018-10-17T20:25:01.584Z,32.9
2018-10-17T20:30:01.766Z,32.4
2018-10-17T20:35:01.814Z,32.2
2018-10-17T20:40:01.297Z,31.4
2018-10-17T20:45:01.297Z,30.7
2018-10-17T20:50:01.601Z,29.7
2018-10-17T20:55:01.349Z,28.3
2018-10-17T21:00:01.389Z,27.0
2018-10-17T21:05:01.376Z,26.2
2018-10-17T21:10:01.302Z,25.3
2018-10-17T21:15:01.373Z,24.9
2018-10-17T21:20:01.546Z,25.1
2018-10-17T21:25:01.356Z,25.0
2018-10-17T21:30:01.418Z,24.6
2018-10-17T21:40:01.350Z,24.2
2018-10-17T21:45:01.314Z,23.8
2018-10-17T21:50:01.819Z,23.6
2018-10-17T21:55:01.315Z,23.4
2018-10-17T22:00:01.323Z,23.3
2018-10-17T22:05:01.323Z,22.9
2018-10-17T22:10:01.325Z,22.6
2018-10-17T22:15:01.322Z,22.2
2018-10-17T22:20:01.530Z,21.9
2018-10-17T22:25:01.324Z,21.8
2018-10-17T22:30:01.673Z,22.0
2018-10-17T22:35:01.331Z,22.6
2018-10-17T22:40:01.342Z,22.7
2018-10-17T22:45:01.334Z,23.4
2018-10-17T22:50:01.592Z,24.0
2018-10-17T22:55:01.482Z,24.2
2018-10-17T23:00:01.334Z,24.0
2018-10-17T23:05:01.339Z,24.3
2018-10-17T23:10:01.348Z,23.5
2018-10-17T23:15:01.350Z,22.6
2018-10-17T23:20:01.609Z,21.5
2018-10-17T23:25:01.357Z,19.2
2018-10-17T23:30:01.355Z,17.8
2018-10-17T23:35:01.356Z,18.1
2018-10-17T23:40:01.419Z,18.5
2018-10-17T23:45:01.361Z,18.2
2018-10-17T23:50:01.658Z,18.9
2018-10-17T23:55:01.359Z,19.4
